Aviation Digital Data Service (ADDS)

Output produced by TAFs form (0943 UTC 26 April 2015)
found at http://aviationweather.gov/adds/tafs/
 
KCNM 260520Z 2606/2706 23010KT P6SM SCT250 
     FM261600 24021G30KT P6SM BKN200 
     FM262000 25028G38KT 5SM -SHRA BLDU SCT080 BKN150 
     FM270100 24015G23KT P6SM BKN150